createdAt,value
2022-07-25T00:45:06.871Z,73527.31
2022-07-25T00:48:13.320Z,73527.31
2022-07-25T01:01:31.501Z,73520.11
2022-07-25T01:04:23.377Z,73512.52
2022-07-25T01:07:17.926Z,73512.52
2022-07-25T02:40:20.441Z,73700.39
2022-07-25T02:52:16.600Z,73728.77
2022-07-25T02:54:52.169Z,73732.77
2022-07-25T02:57:33.681Z,73738.77
2022-07-25T03:00:20.555Z,73746.75
2022-07-25T03:03:20.859Z,73758.75
2022-07-25T03:14:41.766Z,73790.73
2022-07-25T03:18:35.231Z,73790.73
2022-07-25T03:26:57.120Z,73781.14
2022-07-25T03:35:35.886Z,73770.34
2022-07-25T04:07:34.261Z,73598.86
2022-07-25T04:24:33.160Z,73137.59
2022-07-25T04:27:04.172Z,73082.44
2022-07-25T04:29:35.601Z,73048.86
2022-07-25T04:32:07.675Z,72994.91
2022-07-25T04:34:37.997Z,72936.16
2022-07-25T04:37:08.163Z,72895.40
2022-07-25T04:39:38.750Z,72861.42
2022-07-25T04:42:37.275Z,72827.05
2022-07-25T04:45:33.701Z,72785.89
2022-07-25T04:48:15.924Z,72749.13
2022-07-25T04:52:10.962Z,72707.56
2022-07-25T04:54:44.330Z,72666.00
2022-07-25T05:00:28.833Z,72576.09
2022-07-25T05:02:58.703Z,72535.32
2022-07-25T05:05:28.840Z,72504.55
2022-07-25T05:08:00.172Z,72471.39
2022-07-25T05:10:31.816Z,72438.22
2022-07-25T05:13:02.390Z,72401.05
2022-07-25T05:15:38.261Z,72363.09
2022-07-25T05:18:15.504Z,72316.33
2022-07-25T05:28:04.297Z,72194.05
2022-07-25T05:30:59.577Z,72171.68
2022-07-25T05:33:30.136Z,72155.30
2022-07-25T05:36:01.866Z,72132.52
2022-07-25T05:38:32.232Z,72100.55
2022-07-25T05:41:03.446Z,72049.41
2022-07-25T05:43:33.288Z,71992.27
2022-07-25T05:46:04.550Z,71931.54
2022-07-25T05:48:34.966Z,71874.00
2022-07-25T05:51:05.894Z,71856.42
2022-07-25T05:53:36.149Z,71816.06
2022-07-25T05:56:06.969Z,71787.70
2022-07-25T05:58:51.750Z,71790.89
2022-07-25T06:01:49.673Z,71772.52
2022-07-25T06:04:28.744Z,71733.36
2022-07-25T06:07:08.206Z,71728.56
2022-07-25T06:10:05.743Z,71757.73
2022-07-25T06:15:28.610Z,71734.16
2022-07-25T06:16:59.702Z,71685.02
2022-07-25T06:19:38.833Z,71644.66
2022-07-25T06:27:03.786Z,71621.48
2022-07-25T06:38:22.278Z,71665.44
2022-07-25T06:40:53.075Z,71652.26
2022-07-25T06:43:23.087Z,71634.27
2022-07-25T06:45:52.922Z,71593.52
2022-07-25T06:48:25.033Z,71541.58
2022-07-25T06:50:57.928Z,71504.83
2022-07-25T06:53:29.226Z,71478.06
2022-07-25T06:56:03.041Z,71448.50
2022-07-25T06:58:36.156Z,71423.33
2022-07-25T07:01:07.987Z,71400.55
2022-07-25T07:03:41.876Z,71382.98
2022-07-25T07:06:14.650Z,71341.02
2022-07-25T07:08:58.680Z,71338.23
2022-07-25T07:12:34.188Z,71340.23
2022-07-25T07:15:06.713Z,71317.45
2022-07-25T07:18:01.262Z,71308.67
2022-07-25T07:20:44.969Z,71276.30
2022-07-25T07:23:33.965Z,71235.96
2022-07-25T07:26:35.653Z,71245.95
2022-07-25T07:42:16.916Z,71248.34
2022-07-25T07:44:59.719Z,71172.44
2022-07-25T07:47:57.657Z,71152.46
2022-07-25T07:50:33.098Z,71126.50
2022-07-25T07:53:03.422Z,71099.73
2022-07-25T07:55:46.070Z,71077.36
2022-07-25T07:58:19.514Z,71090.95
2022-07-25T08:00:52.340Z,71086.95
2022-07-25T08:03:22.820Z,71100.54
2022-07-25T08:05:52.906Z,71061.39
2022-07-25T08:08:26.696Z,71051.80
2022-07-25T08:11:02.358Z,71049.00
2022-07-25T08:13:39.433Z,71037.42
2022-07-25T08:16:14.594Z,71056.98
2022-07-25T08:18:45.266Z,71078.96
2022-07-25T08:21:15.221Z,71072.58
2022-07-25T08:23:47.782Z,71097.74
2022-07-25T08:26:17.817Z,71112.92
2022-07-25T08:28:52.523Z,71152.87
2022-07-25T08:31:31.454Z,71302.27
2022-07-25T08:34:03.121Z,71539.59
2022-07-25T08:36:35.085Z,71534.39
2022-07-25T08:39:06.011Z,71463.27
2022-07-25T08:41:35.462Z,71497.23
2022-07-25T08:44:05.670Z,71475.27
2022-07-25T08:46:36.322Z,71452.89
2022-07-25T08:49:05.949Z,71362.60
2022-07-25T08:51:38.143Z,71289.89
2022-07-25T08:54:08.570Z,71253.54
2022-07-25T08:56:43.468Z,71247.14
2022-07-25T08:59:14.284Z,71225.58
2022-07-25T09:01:43.595Z,71197.21
2022-07-25T09:04:14.475Z,71190.02
2022-07-25T09:06:52.617Z,71200.01
2022-07-25T09:09:36.234Z,71193.61
2022-07-25T09:12:08.683Z,71186.02
2022-07-25T09:14:45.541Z,71191.62
2022-07-25T09:17:22.143Z,71176.04
2022-07-25T09:19:57.908Z,71166.85
2022-07-25T09:22:28.439Z,71154.07
2022-07-25T09:24:59.094Z,71151.27
2022-07-25T09:27:35.220Z,71144.88
2022-07-25T09:30:18.977Z,71128.10
2022-07-25T09:33:02.472Z,71124.10
2022-07-25T09:35:34.878Z,71102.92
2022-07-25T09:38:16.103Z,71123.70
2022-07-25T09:40:59.513Z,71108.12
2022-07-25T09:43:40.786Z,71146.87
2022-07-25T09:46:12.818Z,71137.29
2022-07-25T09:48:46.873Z,71126.50
2022-07-25T09:51:16.671Z,71128.50
2022-07-25T09:53:47.513Z,71146.08
2022-07-25T09:56:18.386Z,71130.89
2022-07-25T09:58:48.850Z,71217.17
2022-07-25T10:01:31.281Z,71228.36
2022-07-25T10:04:28.034Z,71185.22
2022-07-25T10:07:13.187Z,71144.08
2022-07-25T10:09:51.643Z,71163.25
2022-07-25T10:12:23.403Z,71162.85
2022-07-25T10:15:11.500Z,71174.04
2022-07-25T10:17:44.052Z,71173.64
2022-07-25T10:20:15.959Z,71173.64
2022-07-25T10:22:56.282Z,71223.98
2022-07-25T10:25:28.474Z,71252.34
2022-07-25T10:28:10.446Z,71215.58
2022-07-25T10:30:41.849Z,71194.81
2022-07-25T10:33:16.275Z,71166.45
2022-07-25T10:35:47.033Z,71200.01
2022-07-25T10:38:25.622Z,71337.84
2022-07-25T10:40:55.172Z,71319.86
2022-07-25T10:43:28.931Z,71368.59
2022-07-25T10:46:00.367Z,71483.66
2022-07-25T10:48:34.238Z,71515.21
2022-07-25T10:51:11.139Z,71518.81
2022-07-25T10:53:50.305Z,71533.98
2022-07-25T10:56:26.220Z,71537.59
2022-07-25T10:58:59.890Z,71570.35
2022-07-25T11:01:37.237Z,71531.60
2022-07-25T11:04:30.565Z,71496.04
2022-07-25T11:07:13.559Z,71506.42
2022-07-25T11:09:45.943Z,71457.68
2022-07-25T11:12:17.281Z,71436.11
2022-07-25T11:14:48.827Z,71403.35
2022-07-25T11:17:24.641Z,71367.80
2022-07-25T11:20:06.544Z,71328.64
2022-07-25T11:22:36.712Z,71310.67
2022-07-25T11:25:17.142Z,71274.71
2022-07-25T11:27:59.050Z,71214.79
2022-07-25T11:30:33.008Z,71168.45
2022-07-25T11:33:04.399Z,71131.69
2022-07-25T11:35:34.322Z,71120.91
2022-07-25T11:38:06.431Z,71106.13
2022-07-25T11:40:45.468Z,71075.36
2022-07-25T11:43:23.806Z,71059.39
2022-07-25T11:46:10.304Z,71049.00
2022-07-25T11:48:41.791Z,71019.45
2022-07-25T11:51:19.344Z,71005.86
2022-07-25T11:53:52.762Z,71001.47
2022-07-25T11:56:42.011Z,70999.06
2022-07-25T11:59:16.194Z,70997.47
2022-07-25T12:01:47.996Z,71006.66
2022-07-25T12:04:20.623Z,70976.30
2022-07-25T12:06:51.954Z,70970.70
2022-07-25T12:09:23.636Z,70989.08
2022-07-25T12:12:04.454Z,70969.51
2022-07-25T12:14:47.127Z,70941.95
2022-07-25T12:17:20.010Z,70921.97
2022-07-25T12:19:51.337Z,70898.80
2022-07-25T12:22:21.558Z,70913.59
2022-07-25T12:24:51.908Z,70907.59
2022-07-25T12:27:24.108Z,70945.14
2022-07-25T12:29:55.391Z,70958.33
2022-07-25T12:32:25.555Z,70916.79
2022-07-25T12:34:58.271Z,70881.63
2022-07-25T12:37:28.422Z,70870.45
2022-07-25T12:40:01.204Z,70862.86
2022-07-25T12:42:33.403Z,70895.21
2022-07-25T12:45:03.524Z,70945.14
2022-07-25T12:47:37.489Z,70919.98
2022-07-25T12:50:08.803Z,70946.34
2022-07-25T12:52:39.084Z,70957.13
2022-07-25T12:55:18.385Z,70919.18
2022-07-25T12:57:51.694Z,70921.17
2022-07-25T13:00:24.571Z,70906.40
2022-07-25T13:02:58.016Z,70884.82
2022-07-25T13:05:28.557Z,70902.79
2022-07-25T13:07:58.495Z,70957.13
2022-07-25T13:10:28.772Z,70964.31
2022-07-25T13:12:58.382Z,70936.35
2022-07-25T13:15:31.171Z,70942.74
2022-07-25T13:18:04.693Z,70941.14
2022-07-25T13:20:38.182Z,70922.77
2022-07-25T13:23:08.908Z,70965.52
2022-07-25T13:25:38.352Z,70978.70
2022-07-25T13:28:11.225Z,70941.55
2022-07-25T13:30:41.003Z,70914.77
2022-07-25T13:33:13.493Z,70911.19
2022-07-25T13:35:43.659Z,70956.33
2022-07-25T13:38:14.080Z,70960.71
2022-07-25T13:40:45.591Z,70933.55
2022-07-25T13:43:16.944Z,70946.34
2022-07-25T13:45:48.583Z,70925.57
2022-07-25T13:48:29.688Z,70904.40
2022-07-25T13:51:02.603Z,70941.14
2022-07-25T13:53:32.360Z,70990.27
2022-07-25T13:56:02.910Z,70989.48
2022-07-25T13:58:34.775Z,70970.70
2022-07-25T14:01:08.339Z,70990.67
2022-07-25T14:03:39.270Z,70993.88
2022-07-25T14:06:15.627Z,70987.48
2022-07-25T14:08:50.082Z,71015.85
2022-07-25T14:11:26.001Z,71045.81
2022-07-25T14:14:01.616Z,71068.98
2022-07-25T14:16:31.528Z,71053.40
2022-07-25T14:19:02.556Z,71043.41
2022-07-25T14:21:35.436Z,71047.80
2022-07-25T14:24:09.549Z,71051.80
2022-07-25T14:26:40.718Z,71064.59
2022-07-25T14:29:12.042Z,71078.56
2022-07-25T14:31:42.787Z,71092.15
2022-07-25T14:34:16.205Z,71112.91
2022-07-25T14:36:48.312Z,71130.90
2022-07-25T14:39:19.868Z,71129.70
2022-07-25T14:41:50.863Z,71125.30
2022-07-25T14:44:22.816Z,71113.71
2022-07-25T14:46:54.527Z,71111.32
2022-07-25T14:49:24.902Z,71108.52
2022-07-25T14:51:54.679Z,71113.71
2022-07-25T14:54:29.200Z,71125.30
2022-07-25T14:57:01.725Z,71171.64
2022-07-25T14:59:32.818Z,71210.79
2022-07-25T15:02:05.283Z,71241.55
2022-07-25T15:04:35.722Z,71241.15
2022-07-25T15:07:08.446Z,71271.52
2022-07-25T15:09:40.200Z,71289.48
2022-07-25T15:12:14.740Z,71284.30
2022-07-25T15:14:48.141Z,71282.70
2022-07-25T15:17:18.786Z,71297.48
2022-07-25T15:19:48.831Z,71313.86
2022-07-25T15:22:19.715Z,71304.67
2022-07-25T15:25:21.872Z,71288.29
2022-07-25T15:27:43.325Z,71257.93
2022-07-25T15:30:15.719Z,71255.93
2022-07-25T15:32:48.757Z,71257.13
2022-07-25T15:35:18.443Z,71245.55
2022-07-25T15:37:48.118Z,71232.77
2022-07-25T15:40:19.869Z,71231.96
2022-07-25T15:42:53.835Z,71259.54
2022-07-25T15:45:33.400Z,71308.27
2022-07-25T15:48:09.257Z,71329.05
2022-07-25T15:50:42.268Z,71317.45
2022-07-25T15:53:14.475Z,71309.86
2022-07-25T15:55:46.657Z,71315.46
2022-07-25T15:58:18.128Z,71307.48
2022-07-25T16:00:50.241Z,71305.08
2022-07-25T16:03:22.440Z,71314.27
2022-07-25T16:05:54.703Z,71329.45
2022-07-25T16:08:25.184Z,71354.21
2022-07-25T16:10:55.765Z,71367.40
2022-07-25T16:13:27.088Z,71386.57
2022-07-25T16:15:56.798Z,71398.16
2022-07-25T16:18:27.918Z,71399.36
2022-07-25T16:20:57.943Z,71410.54
2022-07-25T16:23:37.789Z,71426.13
2022-07-25T16:26:10.542Z,71436.51
2022-07-25T16:28:40.624Z,71443.70
2022-07-25T16:31:10.695Z,71454.09
2022-07-25T16:33:40.694Z,71455.29
2022-07-25T16:36:11.946Z,71463.27
2022-07-25T16:38:41.539Z,71475.66
2022-07-25T16:41:11.518Z,71488.45
2022-07-25T16:43:41.772Z,71494.45
2022-07-25T16:46:11.466Z,71508.42
2022-07-25T16:48:41.572Z,71530.40
2022-07-25T16:51:11.558Z,71547.17
2022-07-25T16:53:42.097Z,71556.37
2022-07-25T16:56:12.461Z,71567.95
2022-07-25T16:58:43.656Z,71581.94
2022-07-25T17:01:15.648Z,71596.72
2022-07-25T17:07:02.295Z,71621.09
2022-07-25T17:09:36.947Z,71627.88
2022-07-25T17:12:09.840Z,71636.67
2022-07-25T17:14:42.803Z,71649.45
2022-07-25T17:17:12.869Z,71667.44
2022-07-25T17:19:44.714Z,71683.42
2022-07-25T17:22:16.681Z,71699.39
2022-07-25T17:24:46.841Z,71720.17
2022-07-25T17:27:16.643Z,71742.55
2022-07-25T17:29:47.391Z,71759.73
2022-07-25T17:32:24.950Z,71776.11
2022-07-25T17:34:59.471Z,71798.48
2022-07-25T17:37:32.224Z,71818.86
2022-07-25T17:40:03.786Z,71840.04
2022-07-25T17:42:33.790Z,71862.02
2022-07-25T17:45:07.682Z,71883.98
2022-07-25T17:47:39.480Z,71903.97
2022-07-25T17:50:13.381Z,71925.55
2022-07-25T17:52:44.435Z,71949.52
2022-07-25T17:55:14.278Z,71975.48
2022-07-25T17:57:45.906Z,71996.27
2022-07-25T18:00:18.081Z,72029.44
2022-07-25T18:02:49.851Z,72061.00
2022-07-25T18:05:19.629Z,72089.77
2022-07-25T18:07:51.303Z,72116.14
2022-07-25T18:10:22.556Z,72144.52
2022-07-25T18:12:54.671Z,72166.89
2022-07-25T18:15:24.650Z,72190.86
2022-07-25T18:17:55.558Z,72216.03
2022-07-25T18:20:25.894Z,72240.41
2022-07-25T18:22:59.404Z,72264.39
2022-07-25T18:25:30.118Z,72289.16
2022-07-25T18:28:02.445Z,72311.14
2022-07-25T18:30:32.720Z,72335.11
2022-07-25T18:33:04.670Z,72353.49
2022-07-25T18:35:34.840Z,72376.27
2022-07-25T18:38:05.327Z,72396.26
2022-07-25T18:40:36.513Z,72410.64
2022-07-25T18:43:08.785Z,72422.23
2022-07-25T18:45:38.882Z,72434.61
2022-07-25T18:48:09.593Z,72464.20
2022-07-25T18:50:39.860Z,72480.58
2022-07-25T18:53:12.953Z,72520.13
2022-07-25T18:55:43.834Z,72553.30
2022-07-25T18:58:16.823Z,72585.27
2022-07-25T19:00:46.734Z,72618.45
2022-07-25T19:03:19.381Z,72642.42
2022-07-25T19:05:51.208Z,72657.61
2022-07-25T19:08:21.438Z,72673.19
2022-07-25T19:10:51.803Z,72692.38
2022-07-25T19:13:46.622Z,72697.16
2022-07-25T19:16:13.277Z,72706.76
2022-07-25T19:18:44.403Z,72713.55
2022-07-25T19:21:14.950Z,72722.35
2022-07-25T19:23:51.268Z,72731.95
2022-07-25T19:26:21.808Z,72735.54
2022-07-25T19:28:51.647Z,72737.14
2022-07-25T19:31:22.375Z,72751.92
2022-07-25T19:33:52.728Z,72761.52
2022-07-25T19:36:23.439Z,72763.52
2022-07-25T19:38:54.457Z,72769.90
2022-07-25T19:41:24.454Z,72786.30
2022-07-25T19:43:55.363Z,72808.67
2022-07-25T19:46:31.897Z,72825.86
2022-07-25T19:49:05.124Z,72838.65
2022-07-25T19:51:36.923Z,72856.23
2022-07-25T19:54:09.297Z,72869.02
2022-07-25T19:56:39.460Z,72876.61
2022-07-25T19:59:09.631Z,72878.21
2022-07-25T20:01:40.767Z,72880.61
2022-07-25T20:04:10.778Z,72902.19
2022-07-25T20:06:40.683Z,72918.58
2022-07-25T20:09:10.995Z,72907.79
2022-07-25T20:11:41.702Z,72911.79
2022-07-25T20:14:11.684Z,72949.75
2022-07-25T20:16:41.837Z,72971.73
2022-07-25T20:19:12.751Z,72969.33
2022-07-25T20:21:44.777Z,72953.75
2022-07-25T20:24:19.390Z,72938.16
2022-07-25T20:26:52.721Z,72934.56
2022-07-25T20:29:22.753Z,72937.36
2022-07-25T20:31:54.579Z,72940.96
2022-07-25T20:34:24.589Z,72942.95
2022-07-25T20:36:54.629Z,72949.35
2022-07-25T20:39:28.659Z,72954.95
2022-07-25T20:41:59.681Z,72973.73
2022-07-25T20:44:29.637Z,72994.11
2022-07-25T20:46:59.783Z,73011.70
2022-07-25T20:49:30.247Z,73046.48
2022-07-25T20:52:01.803Z,73100.03
2022-07-25T20:54:31.984Z,73151.98
2022-07-25T20:57:02.017Z,73174.38
2022-07-25T20:59:33.721Z,73203.55
2022-07-25T21:02:03.905Z,73216.73
2022-07-25T21:04:33.980Z,73224.73
2022-07-25T21:07:05.230Z,73233.52
2022-07-25T21:09:35.941Z,73241.52
2022-07-25T21:12:08.188Z,73236.71
2022-07-25T21:14:38.611Z,73235.52
2022-07-25T21:17:08.659Z,73241.52
2022-07-25T21:19:40.217Z,73243.52
2022-07-25T21:22:10.823Z,73246.71
2022-07-25T21:24:42.100Z,73248.31
2022-07-25T21:27:13.597Z,73260.70
2022-07-25T21:29:43.738Z,73257.11
2022-07-25T21:32:14.380Z,73259.50
2022-07-25T21:34:46.220Z,73265.50
2022-07-25T21:37:17.729Z,73279.48
2022-07-25T21:39:48.623Z,73292.68
2022-07-25T21:42:21.794Z,73295.08
2022-07-25T21:44:52.739Z,73294.68
2022-07-25T21:47:22.808Z,73292.28
2022-07-25T21:50:13.999Z,73291.88
2022-07-25T21:52:50.906Z,73285.88
2022-07-25T21:55:22.100Z,73297.08
2022-07-25T21:57:53.019Z,73313.46
2022-07-25T22:00:23.997Z,73318.66
2022-07-25T22:02:56.086Z,73324.25
2022-07-25T22:05:30.902Z,73324.65
2022-07-25T22:08:03.686Z,73319.45
2022-07-25T22:10:34.246Z,73316.66
2022-07-25T22:13:09.149Z,73305.46
2022-07-25T22:15:38.448Z,73300.27
2022-07-25T22:18:08.628Z,73302.66
2022-07-25T22:20:38.580Z,73301.47
2022-07-25T22:23:08.879Z,73297.88
2022-07-25T22:25:38.680Z,73306.27
2022-07-25T22:28:09.395Z,73318.66
2022-07-25T22:30:44.732Z,73340.25
2022-07-25T22:33:15.627Z,73354.63
2022-07-25T22:35:46.631Z,73365.02
2022-07-25T22:38:16.682Z,73363.02
2022-07-25T22:40:47.293Z,73363.42
2022-07-25T22:43:17.300Z,73371.82
2022-07-25T22:45:48.926Z,73373.02
2022-07-25T22:48:20.295Z,73376.22
2022-07-25T22:50:51.741Z,73373.42
2022-07-25T22:53:22.094Z,73370.22
2022-07-25T22:55:52.703Z,73360.63
2022-07-25T22:58:23.657Z,73351.44
2022-07-25T23:00:54.367Z,73343.84
2022-07-25T23:03:24.533Z,73331.45
2022-07-25T23:06:00.939Z,73323.85
2022-07-25T23:08:31.009Z,73325.85
2022-07-25T23:11:00.726Z,73331.85
2022-07-25T23:13:31.227Z,73339.05
2022-07-25T23:16:01.927Z,73342.23
2022-07-25T23:18:33.998Z,73336.65
2022-07-25T23:21:04.988Z,73334.25
2022-07-25T23:23:34.910Z,73336.65
2022-07-25T23:26:05.021Z,73355.83
2022-07-25T23:28:34.627Z,73364.22
2022-07-25T23:31:05.124Z,73366.22
2022-07-25T23:33:35.775Z,73375.02
2022-07-25T23:36:06.216Z,73381.02
2022-07-25T23:38:35.700Z,73389.40
2022-07-25T23:41:06.427Z,73412.20
2022-07-25T23:43:55.971Z,73438.97
2022-07-25T23:46:29.505Z,73454.16
2022-07-25T23:49:01.788Z,73454.95
2022-07-25T23:51:32.728Z,73457.76
2022-07-25T23:54:03.976Z,73451.36
2022-07-25T23:56:33.883Z,73450.16
2022-07-25T23:59:04.997Z,73458.16
